createdAt,value
2023-04-14T00:00:20.636Z,1010.06
2023-04-14T00:01:20.799Z,1010.07
2023-04-14T00:02:21.059Z,1010.08
2023-04-14T00:03:21.373Z,1010.09
2023-04-14T00:04:21.546Z,1010.06
2023-04-14T00:05:21.611Z,1010.10
2023-04-14T00:06:21.662Z,1010.08
2023-04-14T00:07:21.839Z,1010.12
2023-04-14T00:08:21.979Z,1010.13
2023-04-14T00:09:22.154Z,1010.13
2023-04-14T00:10:22.320Z,1010.12
2023-04-14T00:11:22.484Z,1010.16
2023-04-14T00:12:22.648Z,1010.16
2023-04-14T00:13:22.817Z,1010.18
2023-04-14T00:14:22.994Z,1010.20
2023-04-14T00:15:23.167Z,1010.18
2023-04-14T00:16:23.373Z,1010.21
2023-04-14T00:17:23.523Z,1010.22
2023-04-14T00:18:23.668Z,1010.19
2023-04-14T00:19:23.850Z,1010.19
2023-04-14T00:20:24.005Z,1010.21
2023-04-14T00:21:24.237Z,1010.22
2023-04-14T00:22:24.318Z,1010.27
2023-04-14T00:23:24.481Z,1010.25
2023-04-14T00:24:24.667Z,1010.27
2023-04-14T00:25:24.832Z,1010.26
2023-04-14T00:26:25.024Z,1010.30
2023-04-14T00:27:25.173Z,1010.30
2023-04-14T00:28:25.330Z,1010.31
2023-04-14T00:29:25.511Z,1010.27
2023-04-14T00:30:25.667Z,1010.30
2023-04-14T00:31:25.930Z,1010.30
2023-04-14T00:32:26.098Z,1010.30
2023-04-14T00:33:26.220Z,1010.29
2023-04-14T00:34:26.405Z,1010.29
2023-04-14T00:35:26.573Z,1010.30
2023-04-14T00:36:26.742Z,1010.33
2023-04-14T00:37:26.919Z,1010.32
2023-04-14T00:38:27.082Z,1010.37
2023-04-14T00:39:27.276Z,1010.34
2023-04-14T00:40:27.402Z,1010.36
2023-04-14T00:41:27.564Z,1010.36
2023-04-14T00:42:27.744Z,1010.37
2023-04-14T00:43:27.895Z,1010.41
2023-04-14T00:44:28.073Z,1010.39
2023-04-14T00:45:28.254Z,1010.37
2023-04-14T00:46:28.489Z,1010.39
2023-04-14T00:47:28.629Z,1010.32
2023-04-14T00:48:28.823Z,1010.41
2023-04-14T00:49:28.945Z,1010.44
2023-04-14T00:50:29.106Z,1010.39
2023-04-14T00:51:29.271Z,1010.35
2023-04-14T00:52:29.438Z,1010.40
2023-04-14T00:53:29.622Z,1010.32
2023-04-14T00:54:29.755Z,1010.34
2023-04-14T00:55:29.919Z,1010.37
2023-04-14T00:56:30.079Z,1010.36
2023-04-14T00:57:30.256Z,1010.37
2023-04-14T00:58:30.414Z,1010.33
2023-04-14T00:59:30.625Z,1010.39
2023-04-14T01:00:30.784Z,1010.33
2023-04-14T01:01:31.008Z,1010.38
2023-04-14T01:02:31.337Z,1010.39
2023-04-14T01:03:31.440Z,1010.38
2023-04-14T01:04:45.173Z,1010.37
2023-04-14T01:05:32.662Z,1010.43
2023-04-14T01:06:31.847Z,1010.40
2023-04-14T01:07:32.018Z,1010.39
2023-04-14T01:08:32.200Z,1010.37
2023-04-14T01:09:32.360Z,1010.45
2023-04-14T01:10:32.524Z,1010.45
2023-04-14T01:11:32.680Z,1010.38
2023-04-14T01:12:32.838Z,1010.38
2023-04-14T01:13:33.041Z,1010.35
2023-04-14T01:14:33.170Z,1010.35
2023-04-14T01:15:33.331Z,1010.37
2023-04-14T01:16:33.614Z,1010.36
2023-04-14T01:17:33.662Z,1010.40
2023-04-14T01:18:33.883Z,1010.41
2023-04-14T01:19:34.005Z,1010.40
2023-04-14T01:20:34.185Z,1010.47
2023-04-14T01:21:34.333Z,1010.44
2023-04-14T01:22:34.488Z,1010.42
2023-04-14T01:23:34.743Z,1010.46
2023-04-14T01:24:34.863Z,1010.44
2023-04-14T01:25:35.029Z,1010.42
2023-04-14T01:26:35.183Z,1010.38
2023-04-14T01:27:35.377Z,1010.40
2023-04-14T01:28:35.554Z,1010.38
2023-04-14T01:29:35.714Z,1010.38
2023-04-14T01:30:35.879Z,1010.40
2023-04-14T01:31:36.074Z,1010.35
2023-04-14T01:32:36.230Z,1010.37
2023-04-14T01:33:36.392Z,1010.37
2023-04-14T01:34:36.559Z,1010.35
2023-04-14T01:35:36.716Z,1010.36
2023-04-14T01:36:36.887Z,1010.37
2023-04-14T01:37:37.047Z,1010.38
2023-04-14T01:38:37.221Z,1010.38
2023-04-14T01:39:37.388Z,1010.37
2023-04-14T01:40:37.543Z,1010.35
2023-04-14T01:41:37.705Z,1010.37
2023-04-14T01:42:37.907Z,1010.35
2023-04-14T01:43:38.053Z,1010.38
2023-04-14T01:44:38.222Z,1010.39
2023-04-14T01:45:38.508Z,1010.40
2023-04-14T01:46:38.557Z,1010.42
2023-04-14T01:47:38.773Z,1010.42
2023-04-14T01:48:38.909Z,1010.45
2023-04-14T01:49:39.130Z,1010.47
2023-04-14T01:50:39.247Z,1010.40
2023-04-14T01:51:39.417Z,1010.42
2023-04-14T01:52:39.597Z,1010.42
2023-04-14T01:53:39.778Z,1010.43
2023-04-14T01:54:39.940Z,1010.39
2023-04-14T01:55:40.122Z,1010.38
2023-04-14T01:56:40.265Z,1010.39
2023-04-14T01:57:40.434Z,1010.40
2023-04-14T01:58:40.615Z,1010.35
2023-04-14T01:59:40.783Z,1010.33
2023-04-14T02:00:41.004Z,1010.35
2023-04-14T02:01:41.115Z,1010.38
2023-04-14T02:02:41.400Z,1010.42
2023-04-14T02:03:41.576Z,1010.34
2023-04-14T02:04:41.636Z,1010.33
2023-04-14T02:05:41.821Z,1010.42
2023-04-14T02:06:41.994Z,1010.35
2023-04-14T02:07:42.166Z,1010.39
2023-04-14T02:08:42.321Z,1010.42
2023-04-14T02:09:42.494Z,1010.41
2023-04-14T02:10:42.642Z,1010.40
2023-04-14T02:11:42.810Z,1010.40
2023-04-14T02:12:42.992Z,1010.43
2023-04-14T02:13:43.154Z,1010.44
2023-04-14T02:14:43.331Z,1010.43
2023-04-14T02:15:43.484Z,1010.41
2023-04-14T02:16:43.673Z,1010.39
2023-04-14T02:17:43.871Z,1010.39
2023-04-14T02:18:43.998Z,1010.40
2023-04-14T02:19:44.163Z,1010.43
2023-04-14T02:20:44.324Z,1010.43
2023-04-14T02:21:44.489Z,1010.41
2023-04-14T02:22:44.659Z,1010.38
2023-04-14T02:23:44.827Z,1010.39
2023-04-14T02:24:44.983Z,1010.42
2023-04-14T02:25:45.182Z,1010.37
2023-04-14T02:26:45.369Z,1010.38
2023-04-14T02:27:45.530Z,1010.39
2023-04-14T02:28:45.685Z,1010.42
2023-04-14T02:29:45.877Z,1010.44
2023-04-14T02:30:46.057Z,1010.44
2023-04-14T02:31:46.178Z,1010.47
2023-04-14T02:32:46.384Z,1010.44
2023-04-14T02:33:46.499Z,1010.43
2023-04-14T02:34:46.655Z,1010.44
2023-04-14T02:35:46.818Z,1010.44
2023-04-14T02:36:47.005Z,1010.48
2023-04-14T02:37:47.155Z,1010.47
2023-04-14T02:38:47.319Z,1010.52
2023-04-14T02:39:47.488Z,1010.52
2023-04-14T02:40:47.658Z,1010.53
2023-04-14T02:41:47.821Z,1010.58
2023-04-14T02:42:48.025Z,1010.55
2023-04-14T02:43:48.175Z,1010.50
2023-04-14T02:44:48.366Z,1010.53
2023-04-14T02:45:48.582Z,1010.51
2023-04-14T02:46:48.716Z,1010.52
2023-04-14T02:47:48.986Z,1010.52
2023-04-14T02:48:49.064Z,1010.57
2023-04-14T02:49:49.233Z,1010.57
2023-04-14T02:50:49.400Z,1010.52
2023-04-14T02:51:49.567Z,1010.58
2023-04-14T02:52:49.752Z,1010.57
2023-04-14T02:53:49.908Z,1010.60
2023-04-14T02:54:50.106Z,1010.56
2023-04-14T02:55:50.268Z,1010.52
2023-04-14T02:56:50.440Z,1010.58
2023-04-14T02:57:50.618Z,1010.57
2023-04-14T02:58:50.778Z,1010.59
2023-04-14T02:59:50.937Z,1010.55
2023-04-14T03:00:51.101Z,1010.54
2023-04-14T03:01:51.345Z,1010.53
2023-04-14T03:02:51.564Z,1010.50
2023-04-14T03:03:51.633Z,1010.49
2023-04-14T03:04:51.783Z,1010.54
2023-04-14T03:05:51.962Z,1010.53
2023-04-14T03:06:52.124Z,1010.54
2023-04-14T03:07:52.303Z,1010.56
2023-04-14T03:08:52.470Z,1010.53
2023-04-14T03:09:52.637Z,1010.59
2023-04-14T03:10:52.797Z,1010.59
2023-04-14T03:11:52.967Z,1010.61
2023-04-14T03:12:53.153Z,1010.64
2023-04-14T03:13:53.304Z,1010.64
2023-04-14T03:14:53.486Z,1010.63
2023-04-14T03:15:53.680Z,1010.65
2023-04-14T03:16:53.832Z,1010.64
2023-04-14T03:17:54.309Z,1010.64
2023-04-14T03:18:54.172Z,1010.63
2023-04-14T03:19:54.337Z,1010.62
2023-04-14T03:20:54.501Z,1010.59
2023-04-14T03:21:54.673Z,1010.59
2023-04-14T03:22:54.850Z,1010.60
2023-04-14T03:23:54.987Z,1010.59
2023-04-14T03:24:55.154Z,1010.56
2023-04-14T03:25:55.322Z,1010.52
2023-04-14T03:26:55.475Z,1010.51
2023-04-14T03:27:55.654Z,1010.51
2023-04-14T03:28:55.841Z,1010.52
2023-04-14T03:29:55.991Z,1010.53
2023-04-14T03:30:56.244Z,1010.47
2023-04-14T03:31:56.312Z,1010.51
2023-04-14T03:32:56.509Z,1010.49
2023-04-14T03:33:56.651Z,1010.45
2023-04-14T03:34:56.874Z,1010.45
2023-04-14T03:35:56.988Z,1010.41
2023-04-14T03:36:57.153Z,1010.44
2023-04-14T03:37:57.338Z,1010.42
2023-04-14T03:38:57.747Z,1010.44
2023-04-14T03:39:57.650Z,1010.41
2023-04-14T03:40:57.822Z,1010.36
2023-04-14T03:41:57.999Z,1010.37
2023-04-14T03:42:58.158Z,1010.37
2023-04-14T03:43:58.338Z,1010.39
2023-04-14T03:44:58.507Z,1010.36
2023-04-14T03:45:58.657Z,1010.36
2023-04-14T03:46:58.871Z,1010.34
2023-04-14T03:47:59.079Z,1010.36
2023-04-14T03:48:59.394Z,1010.31
2023-04-14T03:49:59.374Z,1010.32
2023-04-14T03:50:59.541Z,1010.33
2023-04-14T03:51:59.708Z,1010.33
2023-04-14T03:52:59.903Z,1010.36
2023-04-14T03:54:00.054Z,1010.36
2023-04-14T03:55:00.211Z,1010.38
2023-04-14T03:56:00.381Z,1010.37
2023-04-14T03:57:00.585Z,1010.37
2023-04-14T03:58:00.754Z,1010.37
2023-04-14T03:59:01.250Z,1010.36
2023-04-14T04:00:01.095Z,1010.36
2023-04-14T04:01:01.297Z,1010.36
2023-04-14T04:02:01.601Z,1010.38
2023-04-14T04:03:01.819Z,1010.36
2023-04-14T04:04:01.895Z,1010.38
2023-04-14T04:05:02.059Z,1010.40
2023-04-14T04:06:02.121Z,1010.39
2023-04-14T04:07:02.297Z,1010.40
2023-04-14T04:08:02.492Z,1010.38
2023-04-14T04:09:02.928Z,1010.37
2023-04-14T04:10:02.806Z,1010.33
2023-04-14T04:11:02.986Z,1010.35
2023-04-14T04:12:03.169Z,1010.39
2023-04-14T04:13:03.358Z,1010.40
2023-04-14T04:14:03.509Z,1010.41
2023-04-14T04:15:03.718Z,1010.40
2023-04-14T04:16:03.889Z,1010.40
2023-04-14T04:17:04.121Z,1010.40
2023-04-14T04:18:04.317Z,1010.41
2023-04-14T04:19:04.385Z,1010.45
2023-04-14T04:20:06.763Z,1010.46
2023-04-14T04:21:04.744Z,1010.50
2023-04-14T04:22:04.942Z,1010.57
2023-04-14T04:23:05.141Z,1010.51
2023-04-14T04:24:05.305Z,1010.47
2023-04-14T04:25:05.470Z,1010.49
2023-04-14T04:26:05.675Z,1010.50
2023-04-14T04:27:09.866Z,1010.46
2023-04-14T04:28:06.987Z,1010.49
2023-04-14T04:29:06.149Z,1010.52
2023-04-14T04:30:06.294Z,1010.46
2023-04-14T04:31:06.465Z,1010.45
2023-04-14T04:32:06.730Z,1010.49
2023-04-14T04:33:06.825Z,1010.49
2023-04-14T04:34:06.957Z,1010.50
2023-04-14T04:35:07.136Z,1010.50
2023-04-14T04:36:07.282Z,1010.54
2023-04-14T04:37:07.480Z,1010.50
2023-04-14T04:38:07.634Z,1010.51
2023-04-14T04:39:07.824Z,1010.54
2023-04-14T04:40:08.012Z,1010.55
2023-04-14T04:41:08.187Z,1010.55
2023-04-14T04:42:08.376Z,1010.57
2023-04-14T04:43:08.575Z,1010.57
2023-04-14T04:44:08.718Z,1010.56
2023-04-14T04:45:08.888Z,1010.52
2023-04-14T04:46:09.091Z,1010.54
2023-04-14T04:47:09.288Z,1010.53
2023-04-14T04:48:09.445Z,1010.51
2023-04-14T04:49:09.593Z,1010.46
2023-04-14T04:50:09.752Z,1010.55
2023-04-14T04:51:09.937Z,1010.53
2023-04-14T04:52:10.094Z,1010.48
2023-04-14T04:53:10.308Z,1010.47
2023-04-14T04:54:10.446Z,1010.50
2023-04-14T04:55:10.630Z,1010.49
2023-04-14T04:56:10.805Z,1010.48
2023-04-14T04:57:12.157Z,1010.50
2023-04-14T04:58:11.150Z,1010.52
2023-04-14T04:59:11.299Z,1010.51
2023-04-14T05:00:11.473Z,1010.54
2023-04-14T05:01:11.675Z,1010.57
2023-04-14T05:02:11.873Z,1010.56
2023-04-14T05:03:12.112Z,1010.57
2023-04-14T05:04:12.202Z,1010.57
2023-04-14T05:05:12.369Z,1010.59
2023-04-14T05:06:12.534Z,1010.58
2023-04-14T05:07:12.730Z,1010.53
2023-04-14T05:08:15.050Z,1010.54
2023-04-14T05:09:13.083Z,1010.56
2023-04-14T05:10:13.252Z,1010.50
2023-04-14T05:11:13.443Z,1010.51
2023-04-14T05:12:13.642Z,1010.53
2023-04-14T05:13:13.831Z,1010.51
2023-04-14T05:14:14.000Z,1010.53
2023-04-14T05:15:14.192Z,1010.51
2023-04-14T05:16:14.396Z,1010.52
2023-04-14T05:17:14.531Z,1010.52
2023-04-14T05:18:14.702Z,1010.52
2023-04-14T05:19:14.890Z,1010.51
2023-04-14T05:20:15.057Z,1010.50
2023-04-14T05:21:15.257Z,1010.53
2023-04-14T05:22:15.416Z,1010.54
2023-04-14T05:23:15.632Z,1010.56
2023-04-14T05:24:15.769Z,1010.59
2023-04-14T05:25:15.936Z,1010.57
2023-04-14T05:26:39.053Z,1010.56
2023-04-14T05:27:17.278Z,1010.59
2023-04-14T05:28:16.464Z,1010.58
2023-04-14T05:29:16.659Z,1010.59
2023-04-14T05:30:16.825Z,1010.56
2023-04-14T05:31:17.050Z,1010.60
2023-04-14T05:32:17.190Z,1010.55
2023-04-14T05:33:17.365Z,1010.56
2023-04-14T05:34:17.534Z,1010.56
2023-04-14T05:35:17.727Z,1010.53
2023-04-14T05:36:17.873Z,1010.58
2023-04-14T05:37:18.082Z,1010.57
2023-04-14T05:38:18.241Z,1010.57
2023-04-14T05:39:18.409Z,1010.56
2023-04-14T05:40:18.558Z,1010.57
2023-04-14T05:41:18.770Z,1010.60
2023-04-14T05:42:18.920Z,1010.59
2023-04-14T05:43:19.127Z,1010.59
2023-04-14T05:44:19.277Z,1010.58
2023-04-14T05:45:19.491Z,1010.58
2023-04-14T05:46:19.686Z,1010.58
2023-04-14T05:47:19.880Z,1010.58
2023-04-14T05:48:20.017Z,1010.57
2023-04-14T05:49:20.175Z,1010.57
2023-04-14T05:50:20.363Z,1010.57
2023-04-14T05:51:20.541Z,1010.57
2023-04-14T05:52:20.732Z,1010.60
2023-04-14T05:53:20.909Z,1010.63
2023-04-14T05:54:21.096Z,1010.62
2023-04-14T05:55:21.295Z,1010.68
2023-04-14T05:56:21.516Z,1010.67
2023-04-14T05:57:21.622Z,1010.68
2023-04-14T05:58:21.807Z,1010.67
2023-04-14T05:59:21.976Z,1010.70
2023-04-14T06:00:22.147Z,1010.67
2023-04-14T06:01:22.323Z,1010.69
2023-04-14T06:02:22.709Z,1010.71
2023-04-14T06:03:22.890Z,1010.71
2023-04-14T06:04:23.158Z,1010.70
2023-04-14T06:05:23.114Z,1010.69
2023-04-14T06:06:23.170Z,1010.68
2023-04-14T06:07:23.353Z,1010.69
2023-04-14T06:08:23.550Z,1010.70
2023-04-14T06:09:23.739Z,1010.71
2023-04-14T06:10:23.921Z,1010.73
2023-04-14T06:11:24.096Z,1010.73
2023-04-14T06:12:24.272Z,1010.72
2023-04-14T06:13:24.513Z,1010.73
2023-04-14T06:14:24.617Z,1010.71
2023-04-14T06:15:24.792Z,1010.70
2023-04-14T06:16:24.998Z,1010.72
2023-04-14T06:17:25.190Z,1010.73
2023-04-14T06:18:25.341Z,1010.72
2023-04-14T06:19:25.498Z,1010.73
2023-04-14T06:20:25.656Z,1010.72
2023-04-14T06:21:25.830Z,1010.72
2023-04-14T06:22:26.019Z,1010.71
2023-04-14T06:23:26.184Z,1010.70
2023-04-14T06:24:26.371Z,1010.74
2023-04-14T06:25:26.550Z,1010.74
2023-04-14T06:26:26.733Z,1010.71
2023-04-14T06:27:26.918Z,1010.76
2023-04-14T06:28:27.097Z,1010.75
2023-04-14T06:29:27.301Z,1010.73
2023-04-14T06:30:27.441Z,1010.72
2023-04-14T06:31:27.631Z,1010.75
2023-04-14T06:32:27.840Z,1010.75
2023-04-14T06:33:28.047Z,1010.71
2023-04-14T06:34:28.147Z,1010.74
2023-04-14T06:35:33.453Z,1010.76
2023-04-14T06:36:29.497Z,1010.74
2023-04-14T06:37:28.681Z,1010.76
2023-04-14T06:38:28.956Z,1010.75
2023-04-14T06:39:29.053Z,1010.74
2023-04-14T06:40:29.235Z,1010.77
2023-04-14T06:41:29.377Z,1010.79
2023-04-14T06:42:29.544Z,1010.74
2023-04-14T06:43:29.837Z,1010.79
2023-04-14T06:44:29.889Z,1010.73
2023-04-14T06:45:30.037Z,1010.72
2023-04-14T06:46:30.479Z,1010.75
2023-04-14T06:47:30.398Z,1010.76
2023-04-14T06:48:30.706Z,1010.75
2023-04-14T06:49:30.765Z,1010.74
2023-04-14T06:50:30.912Z,1010.75
2023-04-14T06:51:31.064Z,1010.76
2023-04-14T06:52:31.244Z,1010.73
2023-04-14T06:53:31.452Z,1010.79
2023-04-14T06:54:31.608Z,1010.76
2023-04-14T06:55:31.789Z,1010.75
2023-04-14T06:56:31.963Z,1010.75
2023-04-14T06:57:32.144Z,1010.78
2023-04-14T06:58:32.457Z,1010.71
2023-04-14T06:59:32.479Z,1010.71
2023-04-14T07:00:32.686Z,1010.82
2023-04-14T07:01:32.908Z,1010.81
2023-04-14T07:02:33.140Z,1010.89
2023-04-14T07:03:33.232Z,1010.86
2023-04-14T07:04:33.412Z,1010.86
2023-04-14T07:05:33.544Z,1010.83
2023-04-14T07:06:33.733Z,1010.86
2023-04-14T07:07:33.889Z,1010.81
2023-04-14T07:08:34.119Z,1010.83
2023-04-14T07:09:34.270Z,1010.79
2023-04-14T07:10:34.438Z,1010.83
2023-04-14T07:11:34.575Z,1010.86
2023-04-14T07:12:34.791Z,1010.86
2023-04-14T07:13:34.934Z,1010.86
2023-04-14T07:14:35.121Z,1010.81
2023-04-14T07:15:35.323Z,1010.86
2023-04-14T07:16:35.478Z,1010.83
2023-04-14T07:17:35.679Z,1010.80
2023-04-14T07:18:35.880Z,1010.80
2023-04-14T07:19:35.998Z,1010.80
2023-04-14T07:20:36.171Z,1010.84
2023-04-14T07:21:36.362Z,1010.83
2023-04-14T07:22:36.537Z,1010.88
2023-04-14T07:23:36.727Z,1010.87
2023-04-14T07:24:36.916Z,1010.95
2023-04-14T07:25:37.109Z,1010.87
2023-04-14T07:26:37.284Z,1010.82
2023-04-14T07:27:37.497Z,1010.78
2023-04-14T07:28:37.645Z,1010.79
2023-04-14T07:29:37.827Z,1010.77
2023-04-14T07:30:38.001Z,1010.77
2023-04-14T07:31:38.294Z,1010.79
2023-04-14T07:32:38.441Z,1010.82
2023-04-14T07:33:38.572Z,1010.85
2023-04-14T07:34:38.742Z,1010.87
2023-04-14T07:35:41.881Z,1010.89
2023-04-14T07:36:40.088Z,1010.85
2023-04-14T07:37:39.242Z,1010.84
2023-04-14T07:38:39.431Z,1010.84
2023-04-14T07:39:39.652Z,1010.85
2023-04-14T07:40:40.186Z,1010.85
2023-04-14T07:41:39.932Z,1010.84
2023-04-14T07:42:40.131Z,1010.84
2023-04-14T07:43:40.323Z,1010.84
2023-04-14T07:44:40.500Z,1010.89
2023-04-14T07:45:40.678Z,1010.91
2023-04-14T07:46:40.933Z,1010.91
2023-04-14T07:47:41.069Z,1010.92
2023-04-14T07:48:41.232Z,1010.97
2023-04-14T07:49:41.392Z,1010.98
2023-04-14T07:50:41.585Z,1010.98
2023-04-14T07:51:41.763Z,1010.96
2023-04-14T07:52:41.912Z,1010.97
2023-04-14T07:53:42.125Z,1010.99
2023-04-14T07:54:42.268Z,1010.93
2023-04-14T07:55:42.461Z,1010.94
2023-04-14T07:56:42.636Z,1010.93
2023-04-14T07:57:42.814Z,1010.92
2023-04-14T07:58:43.030Z,1010.93
2023-04-14T07:59:43.169Z,1010.95
2023-04-14T08:00:43.348Z,1010.95
2023-04-14T08:01:43.754Z,1010.96
2023-04-14T08:02:44.022Z,1010.91
2023-04-14T08:03:45.497Z,1010.95
2023-04-14T08:04:44.070Z,1010.96
2023-04-14T08:05:44.313Z,1010.93
2023-04-14T08:06:44.517Z,1010.92
2023-04-14T08:07:44.683Z,1010.95
2023-04-14T08:08:44.801Z,1010.94
2023-04-14T08:09:44.980Z,1010.97
2023-04-14T08:10:45.146Z,1010.96
2023-04-14T08:11:45.322Z,1010.99
2023-04-14T08:12:45.530Z,1011.01
2023-04-14T08:13:45.673Z,1010.94
2023-04-14T08:14:45.852Z,1010.97
2023-04-14T08:15:46.064Z,1010.99
2023-04-14T08:16:46.253Z,1011.00
2023-04-14T08:17:46.445Z,1011.02
2023-04-14T08:18:46.578Z,1011.02
2023-04-14T08:19:46.765Z,1010.98
2023-04-14T08:20:46.927Z,1010.98
2023-04-14T08:21:47.178Z,1010.98
2023-04-14T08:22:47.300Z,1011.02
2023-04-14T08:23:47.467Z,1010.99
2023-04-14T08:24:47.626Z,1011.00
2023-04-14T08:25:47.833Z,1011.02
2023-04-14T08:26:47.986Z,1011.04
2023-04-14T08:27:48.176Z,1011.02
2023-04-14T08:28:48.351Z,1011.04
2023-04-14T08:29:48.533Z,1011.00
2023-04-14T08:30:48.714Z,1011.03
2023-04-14T08:31:48.952Z,1011.00
2023-04-14T08:32:49.144Z,1011.00
2023-04-14T08:33:49.244Z,1010.98
2023-04-14T08:35:36.226Z,1011.01
2023-04-14T08:35:58.902Z,1010.97
2023-04-14T08:36:52.837Z,1010.99
2023-04-14T08:37:49.937Z,1010.96
2023-04-14T08:38:50.130Z,1010.97
2023-04-14T08:39:50.300Z,1010.98
2023-04-14T08:40:50.471Z,1010.96
2023-04-14T08:41:50.649Z,1010.98
2023-04-14T08:42:50.846Z,1010.95
2023-04-14T08:43:50.985Z,1010.94
2023-04-14T08:44:51.167Z,1010.93
2023-04-14T08:45:51.419Z,1010.98
2023-04-14T08:46:51.517Z,1010.96
2023-04-14T08:47:51.735Z,1010.93
2023-04-14T08:48:51.878Z,1010.89
2023-04-14T08:49:52.054Z,1010.94
2023-04-14T08:50:52.251Z,1010.93
2023-04-14T08:51:52.393Z,1010.90
2023-04-14T08:52:52.598Z,1010.89
2023-04-14T08:53:52.761Z,1010.88
2023-04-14T08:54:52.942Z,1010.92
2023-04-14T08:55:53.129Z,1010.89
2023-04-14T08:56:53.340Z,1010.90
2023-04-14T08:57:53.519Z,1010.86
2023-04-14T08:58:53.643Z,1010.92
2023-04-14T08:59:53.826Z,1010.96
2023-04-14T09:00:54.101Z,1010.98
2023-04-14T09:01:54.384Z,1010.97
2023-04-14T09:02:54.470Z,1010.96
2023-04-14T09:03:54.670Z,1011.00
2023-04-14T09:04:54.800Z,1010.96
2023-04-14T09:05:54.847Z,1011.01
2023-04-14T09:06:55.039Z,1010.98
2023-04-14T09:07:55.240Z,1011.02
2023-04-14T09:08:55.392Z,1011.05
2023-04-14T09:09:55.564Z,1011.02
2023-04-14T09:10:55.774Z,1011.00
2023-04-14T09:11:55.928Z,1010.97
2023-04-14T09:12:56.120Z,1010.98
2023-04-14T09:13:56.274Z,1011.00
2023-04-14T09:14:56.426Z,1010.97
2023-04-14T09:15:56.613Z,1010.96
2023-04-14T09:16:56.824Z,1010.95
2023-04-14T09:17:57.017Z,1010.97
2023-04-14T09:18:57.529Z,1010.95
2023-04-14T09:20:35.614Z,1010.96
2023-04-14T09:21:49.605Z,1010.97
2023-04-14T09:21:58.757Z,1010.96
2023-04-14T09:22:57.824Z,1010.97
2023-04-14T09:23:57.983Z,1010.93
2023-04-14T09:24:58.134Z,1010.94
2023-04-14T09:25:58.315Z,1010.93
2023-04-14T09:26:58.495Z,1010.90
2023-04-14T09:27:58.680Z,1010.92
2023-04-14T09:28:59.107Z,1010.91
2023-04-14T09:29:59.046Z,1010.91
2023-04-14T09:30:59.368Z,1010.88
2023-04-14T09:31:59.404Z,1010.91
2023-04-14T09:32:59.641Z,1010.89
2023-04-14T09:34:00.077Z,1010.88
2023-04-14T09:34:59.945Z,1010.86
2023-04-14T09:36:00.134Z,1010.86
2023-04-14T09:37:00.300Z,1010.84
2023-04-14T09:38:00.485Z,1010.85
2023-04-14T09:39:00.638Z,1010.82
2023-04-14T09:40:00.838Z,1010.86
2023-04-14T09:41:01.006Z,1010.79
2023-04-14T09:42:01.193Z,1010.85
2023-04-14T09:43:01.406Z,1010.82
2023-04-14T09:44:01.676Z,1010.83
2023-04-14T09:45:01.743Z,1010.79
2023-04-14T09:46:01.958Z,1010.84
2023-04-14T09:47:02.155Z,1010.79
2023-04-14T09:48:02.351Z,1010.83
2023-04-14T09:49:02.443Z,1010.80
2023-04-14T09:50:02.606Z,1010.83
2023-04-14T09:51:02.831Z,1010.77
2023-04-14T09:52:02.994Z,1010.79
2023-04-14T09:53:03.172Z,1010.80
2023-04-14T09:54:03.556Z,1010.79
2023-04-14T09:55:03.522Z,1010.78
2023-04-14T09:56:03.725Z,1010.79
2023-04-14T09:57:03.897Z,1010.83
2023-04-14T09:58:04.016Z,1010.81
2023-04-14T09:59:04.564Z,1010.81
2023-04-14T10:00:04.384Z,1010.80
2023-04-14T10:01:04.582Z,1010.88
2023-04-14T10:02:04.911Z,1010.83
2023-04-14T10:03:04.957Z,1010.85
2023-04-14T10:04:05.048Z,1010.82
2023-04-14T10:05:05.387Z,1010.84
2023-04-14T10:06:05.404Z,1010.82
2023-04-14T10:07:05.594Z,1010.84
2023-04-14T10:08:05.753Z,1010.85
2023-04-14T10:09:05.914Z,1010.86
2023-04-14T10:10:06.079Z,1010.83
2023-04-14T10:11:06.269Z,1010.82
2023-04-14T10:12:09.055Z,1010.92
2023-04-14T10:13:06.635Z,1010.86
2023-04-14T10:14:06.798Z,1010.85
2023-04-14T10:15:06.963Z,1010.85
2023-04-14T10:16:07.179Z,1010.87
2023-04-14T10:17:07.386Z,1010.85
2023-04-14T10:18:07.575Z,1010.86
2023-04-14T10:19:07.673Z,1010.88
2023-04-14T10:20:07.888Z,1010.87
2023-04-14T10:21:08.041Z,1010.84
2023-04-14T10:22:08.186Z,1010.82
2023-04-14T10:23:08.390Z,1010.85
2023-04-14T10:24:08.527Z,1010.84
2023-04-14T10:25:08.715Z,1010.85
2023-04-14T10:26:08.871Z,1010.79
2023-04-14T10:27:09.054Z,1010.80
2023-04-14T10:28:09.261Z,1010.80
2023-04-14T10:29:09.457Z,1010.81
2023-04-14T10:30:09.587Z,1010.74
2023-04-14T10:31:09.794Z,1010.76
2023-04-14T10:32:09.925Z,1010.75
2023-04-14T10:33:10.125Z,1010.75
2023-04-14T10:34:10.276Z,1010.75
2023-04-14T10:35:10.487Z,1010.75
2023-04-14T10:36:10.612Z,1010.76
2023-04-14T10:37:10.774Z,1010.85
2023-04-14T10:38:10.976Z,1010.75
2023-04-14T10:39:11.127Z,1010.73
2023-04-14T10:40:11.312Z,1010.70
2023-04-14T10:41:11.490Z,1010.70
2023-04-14T10:42:11.653Z,1010.66
2023-04-14T10:43:11.816Z,1010.68
2023-04-14T10:44:12.049Z,1010.71
2023-04-14T10:45:12.151Z,1010.71
2023-04-14T10:46:12.372Z,1010.68
2023-04-14T10:47:12.633Z,1010.68
2023-04-14T10:48:12.718Z,1010.66
2023-04-14T10:49:12.851Z,1010.64
2023-04-14T10:50:13.038Z,1010.63
2023-04-14T10:51:13.198Z,1010.62
2023-04-14T10:52:13.409Z,1010.59
2023-04-14T10:53:13.545Z,1010.65
2023-04-14T10:54:13.719Z,1010.68
2023-04-14T10:55:13.924Z,1010.62
2023-04-14T10:56:14.081Z,1010.61
2023-04-14T10:57:14.301Z,1010.61
2023-04-14T10:58:14.478Z,1010.62
2023-04-14T10:59:14.625Z,1010.57
2023-04-14T11:00:14.790Z,1010.58
2023-04-14T11:01:15.017Z,1010.54
2023-04-14T11:02:15.215Z,1010.55
2023-04-14T11:03:15.476Z,1010.55
2023-04-14T11:04:15.627Z,1010.53
2023-04-14T11:05:15.674Z,1010.55
2023-04-14T11:06:15.856Z,1010.50
2023-04-14T11:07:16.039Z,1010.52
2023-04-14T11:08:16.236Z,1010.46
2023-04-14T11:09:16.385Z,1010.48
2023-04-14T11:10:16.600Z,1010.51
2023-04-14T11:11:16.753Z,1010.48
2023-04-14T11:12:17.016Z,1010.48
2023-04-14T11:13:17.892Z,1010.46
2023-04-14T11:14:17.277Z,1010.48
2023-04-14T11:15:17.447Z,1010.43
2023-04-14T11:16:17.626Z,1010.45
2023-04-14T11:17:17.836Z,1010.45
2023-04-14T11:18:18.035Z,1010.45
2023-04-14T11:19:18.131Z,1010.46
2023-04-14T11:20:18.380Z,1010.43
2023-04-14T11:21:18.493Z,1010.40
2023-04-14T11:22:18.693Z,1010.43
2023-04-14T11:23:18.840Z,1010.46
2023-04-14T11:24:19.022Z,1010.45
2023-04-14T11:25:20.800Z,1010.44
2023-04-14T11:26:19.378Z,1010.41
2023-04-14T11:27:19.586Z,1010.41
2023-04-14T11:28:19.742Z,1010.40
2023-04-14T11:29:19.898Z,1010.41
2023-04-14T11:30:20.106Z,1010.38
2023-04-14T11:31:22.982Z,1010.43
2023-04-14T11:32:20.456Z,1010.41
2023-04-14T11:33:20.611Z,1010.40
2023-04-14T11:34:20.759Z,1010.38
2023-04-14T11:35:20.946Z,1010.34
2023-04-14T11:36:21.142Z,1010.34
2023-04-14T11:37:22.609Z,1010.34
2023-04-14T11:38:21.508Z,1010.32
2023-04-14T11:39:21.646Z,1010.30
2023-04-14T11:40:21.874Z,1010.32
2023-04-14T11:41:22.056Z,1010.33
2023-04-14T11:42:22.278Z,1010.28
2023-04-14T11:43:22.929Z,1010.29
2023-04-14T11:44:22.570Z,1010.30
2023-04-14T11:45:22.764Z,1010.29
2023-04-14T11:46:22.981Z,1010.35
2023-04-14T11:47:23.100Z,1010.31
2023-04-14T11:48:23.286Z,1010.36
2023-04-14T11:49:23.429Z,1010.26
2023-04-14T11:50:23.608Z,1010.33
2023-04-14T11:51:23.796Z,1010.36
2023-04-14T11:52:23.975Z,1010.35
2023-04-14T11:53:24.177Z,1010.35
2023-04-14T11:54:24.331Z,1010.35
2023-04-14T11:55:24.693Z,1010.35
2023-04-14T11:56:24.689Z,1010.38
2023-04-14T11:57:24.879Z,1010.39
2023-04-14T11:58:25.048Z,1010.46
2023-04-14T11:59:25.205Z,1010.46
2023-04-14T12:00:25.461Z,1010.48
2023-04-14T12:01:25.554Z,1010.41
2023-04-14T12:02:25.803Z,1010.42
2023-04-14T12:03:25.986Z,1010.44
2023-04-14T12:04:26.153Z,1010.46
2023-04-14T12:05:26.224Z,1010.47
2023-04-14T12:06:26.400Z,1010.41
2023-04-14T12:07:26.548Z,1010.44